createdAt,value
2023-04-04T00:01:44.164Z,101645.00
2023-04-04T00:04:11.229Z,101643.88
2023-04-04T00:06:37.879Z,101634.75
2023-04-04T00:09:04.770Z,101636.59
2023-04-04T00:11:32.765Z,101631.41
2023-04-04T00:13:59.467Z,101624.47
2023-04-04T00:16:26.200Z,101626.63
2023-04-04T00:18:53.373Z,101625.09
2023-04-04T00:21:20.107Z,101628.81
2023-04-04T00:23:47.900Z,101624.72
2023-04-04T00:26:14.662Z,101627.97
2023-04-04T00:28:42.761Z,101627.03
2023-04-04T00:31:10.521Z,101624.44
2023-04-04T00:33:38.264Z,101629.25
2023-04-04T00:36:05.378Z,101615.94
2023-04-04T00:38:32.040Z,101601.50
2023-04-04T00:41:00.641Z,101615.75
2023-04-04T00:43:27.578Z,101611.81
2023-04-04T00:45:56.452Z,101618.97
2023-04-04T00:48:23.721Z,101619.59
2023-04-04T00:50:50.499Z,101618.72
2023-04-04T00:53:18.238Z,101620.88
2023-04-04T00:55:45.075Z,101626.59
2023-04-04T00:58:11.856Z,101618.06
2023-04-04T01:00:39.000Z,101611.50
2023-04-04T01:03:07.208Z,101615.94
2023-04-04T01:05:33.954Z,101614.78
2023-04-04T01:08:01.690Z,101611.66
2023-04-04T01:10:30.174Z,101611.50
2023-04-04T01:12:57.101Z,101619.78
2023-04-04T01:15:23.798Z,101621.03
2023-04-04T01:17:52.978Z,101628.47
2023-04-04T01:20:26.219Z,101626.03
2023-04-04T01:22:55.434Z,101615.50
2023-04-04T01:25:39.421Z,101623.78
2023-04-04T01:28:06.139Z,101625.50
2023-04-04T01:30:36.547Z,101624.94
2023-04-04T01:33:10.620Z,101619.63
2023-04-04T01:35:43.921Z,101615.78
2023-04-04T01:38:18.511Z,101619.09
2023-04-04T01:40:49.895Z,101621.38
2023-04-04T01:43:17.030Z,101614.56
2023-04-04T01:45:43.880Z,101614.25
2023-04-04T01:48:10.538Z,101607.50
2023-04-04T01:50:37.616Z,101602.63
2023-04-04T01:53:04.487Z,101596.34
2023-04-04T01:55:31.149Z,101586.22
2023-04-04T01:57:59.131Z,101591.50
2023-04-04T02:00:25.929Z,101582.06
2023-04-04T02:02:52.753Z,101586.78
2023-04-04T02:05:19.498Z,101585.06
2023-04-04T02:07:48.058Z,101587.16
2023-04-04T02:10:14.897Z,101580.16
2023-04-04T02:12:41.572Z,101584.47
2023-04-04T02:15:10.298Z,101582.28
2023-04-04T02:17:37.045Z,101588.91
2023-04-04T02:20:04.109Z,101586.34
2023-04-04T02:22:30.933Z,101588.34
2023-04-04T02:24:57.669Z,101578.59
2023-04-04T02:27:24.353Z,101584.81
2023-04-04T02:29:50.994Z,101582.97
2023-04-04T02:32:19.067Z,101587.31
2023-04-04T02:34:45.753Z,101581.25
2023-04-04T02:37:12.445Z,101571.66
2023-04-04T02:39:39.272Z,101581.31
2023-04-04T02:42:06.026Z,101578.06
2023-04-04T02:44:32.682Z,101578.75
2023-04-04T02:46:59.389Z,101575.63
2023-04-04T02:49:27.502Z,101569.91
2023-04-04T02:51:54.103Z,101563.06
2023-04-04T02:54:20.753Z,101566.50
2023-04-04T02:56:47.398Z,101558.78
2023-04-04T02:59:14.150Z,101562.50
2023-04-04T03:01:40.801Z,101557.88
2023-04-04T03:04:07.549Z,101560.41
2023-04-04T03:06:35.606Z,101566.13
2023-04-04T03:09:02.327Z,101564.25
2023-04-04T03:11:28.970Z,101557.38
2023-04-04T03:13:55.695Z,101559.56
2023-04-04T03:16:22.572Z,101559.19
2023-04-04T03:18:49.606Z,101556.06
2023-04-04T03:21:16.217Z,101557.50
2023-04-04T03:23:44.233Z,101561.06
2023-04-04T03:26:11.252Z,101557.72
2023-04-04T03:28:38.318Z,101554.34
2023-04-04T03:31:05.754Z,101546.94
2023-04-04T03:33:32.544Z,101555.53
2023-04-04T03:35:59.317Z,101546.66
2023-04-04T03:38:25.926Z,101546.47
2023-04-04T03:41:02.466Z,101546.22
2023-04-04T03:43:30.307Z,101546.69
2023-04-04T03:46:00.257Z,101542.78
2023-04-04T03:48:26.922Z,101537.97
2023-04-04T03:50:53.544Z,101537.97
2023-04-04T03:53:20.330Z,101537.59
2023-04-04T03:55:47.016Z,101537.19
2023-04-04T03:58:21.193Z,101531.72
2023-04-04T04:00:47.911Z,101539.19
2023-04-04T04:03:17.079Z,101536.94
2023-04-04T04:05:44.173Z,101530.97
2023-04-04T04:08:10.868Z,101537.47
2023-04-04T04:10:37.507Z,101530.69
2023-04-04T04:13:04.119Z,101532.53
2023-04-04T04:15:32.140Z,101532.31
2023-04-04T04:17:59.804Z,101535.28
2023-04-04T04:20:26.609Z,101535.28
2023-04-04T04:22:54.107Z,101544.19
2023-04-04T04:25:21.168Z,101539.06
2023-04-04T04:27:47.789Z,101547.41
2023-04-04T04:30:16.818Z,101539.63
2023-04-04T04:32:44.896Z,101538.09
2023-04-04T04:35:11.570Z,101544.84
2023-04-04T04:37:38.311Z,101543.63
2023-04-04T04:40:06.043Z,101545.56
2023-04-04T04:42:32.870Z,101549.41
2023-04-04T04:44:59.521Z,101549.47
2023-04-04T04:47:26.250Z,101547.94
2023-04-04T04:49:54.335Z,101544.13
2023-04-04T04:52:20.997Z,101550.00
2023-04-04T04:54:47.683Z,101550.84
2023-04-04T04:57:14.388Z,101548.03
2023-04-04T04:59:41.068Z,101545.44
2023-04-04T05:02:07.837Z,101539.81
2023-04-04T05:04:34.621Z,101535.09
2023-04-04T05:07:02.726Z,101534.34
2023-04-04T05:09:29.391Z,101522.81
2023-04-04T05:14:40.292Z,101513.44
2023-04-04T05:17:07.977Z,101512.50
2023-04-04T05:19:34.682Z,101502.69
2023-04-04T05:22:02.801Z,101505.00
2023-04-04T05:24:29.752Z,101496.50
2023-04-04T05:26:57.445Z,101503.75
2023-04-04T05:29:24.249Z,101492.94
2023-04-04T05:31:50.903Z,101497.25
2023-04-04T05:34:17.637Z,101492.69
2023-04-04T05:36:44.452Z,101485.31
2023-04-04T05:39:12.605Z,101484.88
2023-04-04T05:41:39.232Z,101481.72
2023-04-04T05:44:05.871Z,101480.53
2023-04-04T05:46:32.722Z,101482.91
2023-04-04T05:48:59.513Z,101488.69
2023-04-04T05:51:26.191Z,101485.72
2023-04-04T05:53:52.883Z,101495.44
2023-04-04T05:56:20.906Z,101492.66
2023-04-04T05:58:47.617Z,101502.84
2023-04-04T06:01:14.317Z,101504.84
2023-04-04T06:03:41.150Z,101504.84
2023-04-04T06:06:08.020Z,101501.91
2023-04-04T06:08:50.211Z,101506.06
2023-04-04T06:11:21.545Z,101503.25
2023-04-04T06:13:48.200Z,101499.69
2023-04-04T06:16:16.153Z,101491.00
2023-04-04T06:18:42.879Z,101503.59
2023-04-04T06:21:10.639Z,101506.47
2023-04-04T06:23:37.321Z,101515.59
2023-04-04T06:26:04.427Z,101512.88
2023-04-04T06:28:32.495Z,101513.31
2023-04-04T06:30:59.223Z,101515.13
2023-04-04T06:33:26.026Z,101519.97
2023-04-04T06:35:52.737Z,101519.81
2023-04-04T06:38:19.451Z,101535.19
2023-04-04T06:40:46.154Z,101536.13
2023-04-04T06:43:12.863Z,101534.91
2023-04-04T06:45:40.908Z,101543.03
2023-04-04T06:48:08.125Z,101549.13
2023-04-04T06:50:34.890Z,101560.66
2023-04-04T06:53:03.012Z,101569.72
2023-04-04T06:55:29.823Z,101572.44
2023-04-04T06:57:56.560Z,101580.78
2023-04-04T07:00:23.448Z,101583.72
2023-04-04T07:02:57.263Z,101580.00
2023-04-04T07:05:24.010Z,101593.81
2023-04-04T07:07:51.934Z,101592.13
2023-04-04T07:10:18.586Z,101589.59
2023-04-04T07:12:45.289Z,101592.72
2023-04-04T07:15:11.955Z,101593.09
2023-04-04T07:17:38.800Z,101598.75
2023-04-04T07:20:08.130Z,101590.91
2023-04-04T07:22:37.428Z,101593.94
2023-04-04T07:25:04.488Z,101595.47
2023-04-04T07:27:31.205Z,101594.31
2023-04-04T07:29:57.942Z,101593.63
2023-04-04T07:32:24.835Z,101591.13
2023-04-04T07:34:51.534Z,101593.06
2023-04-04T07:37:19.653Z,101581.94
2023-04-04T07:39:46.322Z,101590.78
2023-04-04T07:42:12.931Z,101584.72
2023-04-04T07:44:39.612Z,101580.78
2023-04-04T07:47:09.850Z,101577.03
2023-04-04T07:49:37.223Z,101579.88
2023-04-04T07:52:04.102Z,101579.28
2023-04-04T07:54:32.170Z,101576.66
2023-04-04T07:56:58.886Z,101572.00
2023-04-04T07:59:25.718Z,101570.69
2023-04-04T08:01:52.725Z,101567.03
2023-04-04T08:04:19.610Z,101571.19
2023-04-04T08:06:46.348Z,101566.63
2023-04-04T08:09:13.368Z,101570.44
2023-04-04T08:11:41.404Z,101565.84
2023-04-04T08:14:08.088Z,101571.81
2023-04-04T08:16:34.787Z,101560.72
2023-04-04T08:19:01.556Z,101571.41
2023-04-04T08:21:28.229Z,101576.25
2023-04-04T08:23:54.931Z,101571.09
2023-04-04T08:26:21.604Z,101562.91
2023-04-04T08:28:49.859Z,101559.81
2023-04-04T08:31:16.940Z,101565.78
2023-04-04T08:33:47.600Z,101565.84
2023-04-04T08:36:14.818Z,101565.50
2023-04-04T08:38:41.530Z,101564.00
2023-04-04T08:41:09.880Z,101557.91
2023-04-04T08:43:38.477Z,101557.56
2023-04-04T08:46:11.413Z,101559.50
2023-04-04T08:48:39.513Z,101576.44
2023-04-04T08:51:08.546Z,101570.00
2023-04-04T08:53:36.436Z,101572.31
2023-04-04T08:56:03.534Z,101570.47
2023-04-04T08:58:30.279Z,101565.91
2023-04-04T09:00:57.115Z,101563.63
2023-04-04T09:03:26.621Z,101561.81
2023-04-04T09:08:20.507Z,101552.53
2023-04-04T09:10:48.026Z,101557.78
2023-04-04T09:13:16.637Z,101555.41
2023-04-04T09:15:47.157Z,101553.34
2023-04-04T09:18:13.867Z,101557.44
2023-04-04T09:20:43.987Z,101554.22
2023-04-04T09:23:12.101Z,101553.59
2023-04-04T09:25:52.755Z,101553.38
2023-04-04T09:28:28.123Z,101554.06
2023-04-04T09:30:54.915Z,101554.34
2023-04-04T09:33:23.714Z,101555.78
2023-04-04T09:35:55.431Z,101556.34
2023-04-04T09:38:24.058Z,101550.22
2023-04-04T09:40:50.997Z,101541.34
2023-04-04T09:43:17.800Z,101551.31
2023-04-04T09:45:45.857Z,101547.25
2023-04-04T09:48:12.683Z,101554.94
2023-04-04T09:50:46.780Z,101556.16
2023-04-04T09:53:17.934Z,101553.63
2023-04-04T09:55:50.587Z,101555.31
2023-04-04T09:58:18.850Z,101550.34
2023-04-04T10:00:47.892Z,101549.56
2023-04-04T10:03:16.156Z,101546.72
2023-04-04T10:05:45.152Z,101553.91
2023-04-04T10:08:17.557Z,101544.91
2023-04-04T10:11:06.531Z,101553.19
2023-04-04T10:13:37.550Z,101548.94
2023-04-04T10:16:04.835Z,101548.28
2023-04-04T10:18:33.376Z,101550.88
2023-04-04T10:21:14.130Z,101539.00
2023-04-04T10:23:46.078Z,101549.91
2023-04-04T10:26:13.539Z,101541.72
2023-04-04T10:28:40.977Z,101538.06
2023-04-04T10:31:19.789Z,101532.03
2023-04-04T10:33:52.645Z,101536.19
2023-04-04T10:36:23.104Z,101527.53
2023-04-04T10:39:02.261Z,101539.84
2023-04-04T10:41:31.776Z,101539.63
2023-04-04T10:44:06.796Z,101535.75
2023-04-04T10:46:35.887Z,101531.50
2023-04-04T10:49:03.720Z,101522.56
2023-04-04T10:51:32.600Z,101510.19
2023-04-04T10:54:02.827Z,101505.84
2023-04-04T10:56:29.967Z,101512.66
2023-04-04T10:59:09.611Z,101503.75
2023-04-04T11:01:49.617Z,101509.91
2023-04-04T11:04:20.347Z,101505.66
2023-04-04T11:07:10.128Z,101503.31
2023-04-04T11:09:54.940Z,101506.94
2023-04-04T11:12:26.553Z,101502.28
2023-04-04T11:15:07.919Z,101494.09
2023-04-04T11:17:42.101Z,101497.78
2023-04-04T11:20:09.246Z,101483.72
2023-04-04T11:22:35.919Z,101481.56
2023-04-04T11:25:31.346Z,101477.69
2023-04-04T11:27:58.623Z,101478.97
2023-04-04T11:30:26.193Z,101485.72
2023-04-04T11:33:04.013Z,101484.78
2023-04-04T11:35:33.572Z,101480.28
2023-04-04T11:38:00.973Z,101478.50
2023-04-04T11:40:40.503Z,101473.47
2023-04-04T11:43:08.232Z,101472.00
2023-04-04T11:45:35.521Z,101467.47
2023-04-04T11:48:04.087Z,101463.75
2023-04-04T11:50:35.224Z,101468.75
2023-04-04T11:53:05.635Z,101469.47
2023-04-04T11:55:32.361Z,101480.53
2023-04-04T11:58:11.334Z,101461.16
2023-04-04T12:00:39.652Z,101456.34
2023-04-04T12:03:08.666Z,101445.59
2023-04-04T12:05:35.561Z,101449.84
2023-04-04T12:08:03.378Z,101444.47
2023-04-04T12:10:31.440Z,101442.97
2023-04-04T12:12:58.478Z,101438.34
2023-04-04T12:15:28.275Z,101431.09
2023-04-04T12:17:54.980Z,101434.56
2023-04-04T12:20:22.599Z,101429.59
2023-04-04T12:22:49.370Z,101423.06
2023-04-04T12:25:16.065Z,101425.72
2023-04-04T12:27:43.170Z,101422.34
2023-04-04T12:30:12.048Z,101421.16
2023-04-04T12:32:40.168Z,101409.31
2023-04-04T12:35:07.321Z,101411.44
2023-04-04T12:37:34.013Z,101411.31
2023-04-04T12:40:02.253Z,101412.63
2023-04-04T12:42:31.523Z,101413.00
2023-04-04T12:44:58.176Z,101423.00
2023-04-04T12:47:24.950Z,101403.13
2023-04-04T12:49:54.270Z,101393.94
2023-04-04T12:52:22.947Z,101400.03
2023-04-04T12:55:06.859Z,101388.97
2023-04-04T12:57:35.498Z,101385.63
2023-04-04T13:00:03.983Z,101369.31
2023-04-04T13:02:30.773Z,101373.09
2023-04-04T13:04:59.516Z,101368.66
2023-04-04T13:07:27.802Z,101357.09
2023-04-04T13:09:56.235Z,101356.22
2023-04-04T13:12:22.916Z,101354.25
2023-04-04T13:14:59.833Z,101355.78
2023-04-04T13:17:38.563Z,101346.59
2023-04-04T13:20:07.849Z,101336.75
2023-04-04T13:22:35.379Z,101336.44
2023-04-04T13:25:02.287Z,101321.22
2023-04-04T13:27:29.265Z,101332.16
2023-04-04T13:29:55.906Z,101328.22
2023-04-04T13:32:22.742Z,101319.97
2023-04-04T13:34:49.415Z,101312.72
2023-04-04T13:37:17.560Z,101319.25
2023-04-04T13:39:44.372Z,101320.41
2023-04-04T13:42:11.048Z,101319.47
2023-04-04T13:44:37.813Z,101308.88
2023-04-04T13:47:04.563Z,101309.06
2023-04-04T13:49:31.286Z,101299.28
2023-04-04T13:51:57.966Z,101292.97
2023-04-04T13:54:26.119Z,101303.28
2023-04-04T13:56:54.659Z,101301.22
2023-04-04T13:59:22.484Z,101301.59
2023-04-04T14:01:49.224Z,101292.13
2023-04-04T14:04:23.316Z,101289.72
2023-04-04T14:06:50.947Z,101286.06
2023-04-04T14:09:17.616Z,101300.66
2023-04-04T14:11:45.732Z,101299.34
2023-04-04T14:14:12.467Z,101286.59
2023-04-04T14:16:39.185Z,101287.63
2023-04-04T14:19:05.906Z,101279.63
2023-04-04T14:21:32.690Z,101280.41
2023-04-04T14:23:59.337Z,101278.31
2023-04-04T14:26:25.978Z,101278.22
2023-04-04T14:28:54.017Z,101277.72
2023-04-04T14:31:20.698Z,101267.84
2023-04-04T14:33:47.426Z,101273.00
2023-04-04T14:36:15.499Z,101268.56
2023-04-04T14:38:42.137Z,101253.53
2023-04-04T14:41:08.818Z,101247.84
2023-04-04T14:43:35.498Z,101241.69
2023-04-04T14:46:03.724Z,101244.44
2023-04-04T14:48:30.394Z,101242.91
2023-04-04T14:50:57.235Z,101222.47
2023-04-04T14:53:24.107Z,101227.09
2023-04-04T14:55:50.715Z,101229.56
2023-04-04T14:58:17.389Z,101215.44
2023-04-04T15:00:44.274Z,101225.03
2023-04-04T15:03:12.724Z,101225.16
2023-04-04T15:05:39.664Z,101218.97
2023-04-04T15:08:06.662Z,101218.06
2023-04-04T15:10:33.732Z,101224.84
2023-04-04T15:13:00.508Z,101212.25
2023-04-04T15:15:27.213Z,101220.19
2023-04-04T15:17:53.863Z,101201.78
2023-04-04T15:20:22.117Z,101199.44
2023-04-04T15:22:48.801Z,101196.53
2023-04-04T15:25:15.480Z,101195.06
2023-04-04T15:27:42.152Z,101192.41
2023-04-04T15:30:09.675Z,101183.78
2023-04-04T15:32:36.336Z,101189.00
2023-04-04T15:35:03.142Z,101188.75
2023-04-04T15:37:31.197Z,101185.00
2023-04-04T15:39:57.895Z,101176.69
2023-04-04T15:42:25.205Z,101179.03
2023-04-04T15:44:51.855Z,101167.72
2023-04-04T15:47:18.512Z,101165.38
2023-04-04T15:49:45.197Z,101152.91
2023-04-04T15:52:11.885Z,101152.66
2023-04-04T15:54:39.900Z,101155.53
2023-04-04T15:57:06.555Z,101152.69
2023-04-04T15:59:33.286Z,101155.44
2023-04-04T16:02:00.041Z,101158.63
2023-04-04T16:04:26.756Z,101159.63
2023-04-04T16:06:53.414Z,101156.16
2023-04-04T16:09:20.124Z,101159.66
2023-04-04T16:11:48.397Z,101142.84
2023-04-04T16:14:15.050Z,101150.34
2023-04-04T16:16:41.880Z,101131.59
2023-04-04T16:19:08.635Z,101137.03
2023-04-04T16:21:35.400Z,101133.00
2023-04-04T16:24:02.122Z,101129.59
2023-04-04T16:26:28.844Z,101118.94
2023-04-04T16:28:56.868Z,101126.06
2023-04-04T16:31:23.644Z,101124.69
2023-04-04T16:33:50.291Z,101122.47
2023-04-04T16:36:16.954Z,101115.94
2023-04-04T16:38:43.617Z,101113.94
2023-04-04T16:41:10.374Z,101121.91
2023-04-04T16:43:37.080Z,101109.19
2023-04-04T16:46:05.742Z,101106.06
2023-04-04T16:48:32.430Z,101116.94
2023-04-04T16:50:59.167Z,101116.78
2023-04-04T16:53:25.852Z,101116.44
2023-04-04T16:55:52.626Z,101120.38
2023-04-04T16:58:19.409Z,101119.47
2023-04-04T17:00:46.135Z,101121.16
2023-04-04T17:03:14.292Z,101117.81
2023-04-04T17:05:40.974Z,101112.34
2023-04-04T17:08:07.708Z,101120.63
2023-04-04T17:10:34.788Z,101104.91
2023-04-04T17:13:01.418Z,101106.53
2023-04-04T17:15:28.045Z,101108.28
2023-04-04T17:17:54.703Z,101105.50
2023-04-04T17:20:22.871Z,101089.84
2023-04-04T17:22:49.667Z,101085.50
2023-04-04T17:25:16.347Z,101091.47
2023-04-04T17:27:43.061Z,101089.16
2023-04-04T17:30:11.348Z,101088.00
2023-04-04T17:32:38.165Z,101084.91
2023-04-04T17:35:05.945Z,101083.66
2023-04-04T17:37:34.015Z,101073.94
2023-04-04T17:40:00.901Z,101075.06
2023-04-04T17:42:27.578Z,101072.38
2023-04-04T17:44:54.229Z,101080.19
2023-04-04T17:47:20.941Z,101078.75
2023-04-04T17:49:47.522Z,101068.59
2023-04-04T17:52:14.130Z,101073.22
2023-04-04T17:54:42.250Z,101062.22
2023-04-04T17:57:08.917Z,101048.91
2023-04-04T17:59:35.665Z,101053.56
2023-04-04T18:02:02.624Z,101049.13
2023-04-04T18:04:29.391Z,101050.59
2023-04-04T18:06:56.237Z,101049.53
2023-04-04T18:09:23.465Z,101038.53
2023-04-04T18:11:51.563Z,101052.69
2023-04-04T18:14:18.484Z,101051.00
2023-04-04T18:16:45.401Z,101053.75
2023-04-04T18:19:12.132Z,101044.66
2023-04-04T18:21:38.934Z,101046.34
2023-04-04T18:24:06.214Z,101051.00
2023-04-04T18:26:32.896Z,101053.75
2023-04-04T18:29:02.664Z,101047.00
2023-04-04T18:31:29.382Z,101049.13
2023-04-04T18:33:57.237Z,101054.59
2023-04-04T18:36:23.981Z,101057.97
2023-04-04T18:38:50.719Z,101054.81
2023-04-04T18:41:17.472Z,101052.47
2023-04-04T18:43:44.250Z,101044.66
2023-04-04T18:46:12.483Z,101042.78
2023-04-04T18:48:39.103Z,101050.38
2023-04-04T18:51:05.791Z,101047.81
2023-04-04T18:53:32.409Z,101055.41
2023-04-04T18:55:59.284Z,101052.91
2023-04-04T18:58:26.296Z,101052.66
2023-04-04T19:00:53.255Z,101050.09
2023-04-04T19:03:21.981Z,101053.03
2023-04-04T19:05:49.511Z,101056.03
2023-04-04T19:08:16.625Z,101054.28
2023-04-04T19:10:45.226Z,101049.44
2023-04-04T19:13:11.931Z,101057.88
2023-04-04T19:15:38.822Z,101059.81
2023-04-04T19:18:05.755Z,101055.53
2023-04-04T19:20:33.852Z,101045.78
2023-04-04T19:23:00.579Z,101048.28
2023-04-04T19:25:27.340Z,101049.53
2023-04-04T19:27:54.013Z,101046.06
2023-04-04T19:30:40.790Z,101047.56
2023-04-04T19:33:09.194Z,101045.63
2023-04-04T19:36:07.628Z,101045.69
2023-04-04T19:38:35.895Z,101039.13
2023-04-04T19:41:07.430Z,101038.03
2023-04-04T19:43:34.110Z,101044.41
2023-04-04T19:46:07.526Z,101044.38
2023-04-04T19:48:45.108Z,101041.69
2023-04-04T19:51:36.877Z,101047.56
2023-04-04T19:54:06.532Z,101042.47
2023-04-04T19:56:35.671Z,101046.09
2023-04-04T19:59:04.507Z,101052.22
2023-04-04T20:01:33.416Z,101046.53
2023-04-04T20:04:06.233Z,101048.44
2023-04-04T20:06:35.602Z,101055.38
2023-04-04T20:09:07.356Z,101055.63
2023-04-04T20:11:36.279Z,101047.97
2023-04-04T20:14:06.331Z,101046.06
2023-04-04T20:16:33.675Z,101054.09
2023-04-04T20:19:01.762Z,101049.19
2023-04-04T20:21:29.854Z,101058.53
2023-04-04T20:23:59.463Z,101048.88
2023-04-04T20:26:49.612Z,101053.50
2023-04-04T20:29:17.586Z,101057.47
2023-04-04T20:31:46.335Z,101048.81
2023-04-04T20:34:36.759Z,101043.31
2023-04-04T20:37:07.155Z,101051.59
2023-04-04T20:39:37.933Z,101045.19
2023-04-04T20:42:27.135Z,101050.03
2023-04-04T20:44:54.505Z,101049.69
2023-04-04T20:47:41.982Z,101054.34
2023-04-04T20:50:38.926Z,101058.53
2023-04-04T20:53:06.891Z,101052.19
2023-04-04T20:55:35.531Z,101052.19
2023-04-04T20:58:07.747Z,101051.50
2023-04-04T21:00:42.025Z,101052.75
2023-04-04T21:03:10.677Z,101043.66
2023-04-04T21:05:39.461Z,101044.72
2023-04-04T21:08:35.921Z,101036.69
2023-04-04T21:11:05.156Z,101037.66
2023-04-04T21:13:34.924Z,101041.81
2023-04-04T21:16:03.619Z,101034.34
2023-04-04T21:18:31.756Z,101039.63
2023-04-04T21:21:15.417Z,101036.41
2023-04-04T21:23:47.765Z,101037.22
2023-04-04T21:26:29.607Z,101038.44
2023-04-04T21:28:57.884Z,101027.41
2023-04-04T21:31:27.505Z,101031.19
2023-04-04T21:33:55.678Z,101025.69
2023-04-04T21:36:28.722Z,101032.63
2023-04-04T21:38:56.637Z,101030.84
2023-04-04T21:41:26.576Z,101016.94
2023-04-04T21:43:54.528Z,101030.00
2023-04-04T21:46:23.371Z,101024.31
2023-04-04T21:48:50.362Z,101020.22
2023-04-04T21:51:17.288Z,101023.16
2023-04-04T21:53:44.018Z,101026.59
2023-04-04T21:56:10.617Z,101018.09
2023-04-04T21:58:38.598Z,101020.22
2023-04-04T22:01:05.409Z,101015.13
2023-04-04T22:03:32.182Z,101015.44
2023-04-04T22:05:58.783Z,101020.00
2023-04-04T22:08:25.568Z,101016.16
2023-04-04T22:10:52.292Z,101015.50
2023-04-04T22:13:20.208Z,101012.09
2023-04-04T22:15:49.084Z,101011.97
2023-04-04T22:18:16.544Z,101012.34
2023-04-04T22:20:44.349Z,101011.97
2023-04-04T22:23:12.599Z,101005.66
2023-04-04T22:25:39.318Z,101006.50
2023-04-04T22:28:06.802Z,101002.81
2023-04-04T22:30:33.499Z,101006.41
2023-04-04T22:33:01.965Z,101006.22
2023-04-04T22:35:28.887Z,101000.59
2023-04-04T22:37:55.890Z,101001.25
2023-04-04T22:40:22.591Z,100997.00
2023-04-04T22:42:49.258Z,101005.97
2023-04-04T22:45:16.064Z,101002.56
2023-04-04T22:47:42.792Z,100997.44
2023-04-04T22:50:11.146Z,101000.09
2023-04-04T22:52:37.764Z,100991.13
2023-04-04T22:55:05.001Z,100988.59
2023-04-04T22:57:31.849Z,100988.78
2023-04-04T22:59:58.574Z,100983.50
2023-04-04T23:02:25.448Z,100979.75
2023-04-04T23:04:52.163Z,100972.34
2023-04-04T23:07:20.224Z,100972.47
2023-04-04T23:09:46.879Z,100972.38
2023-04-04T23:12:13.582Z,100971.81
2023-04-04T23:14:40.211Z,100972.34
2023-04-04T23:17:06.928Z,100975.47
2023-04-04T23:19:33.665Z,100967.53
2023-04-04T23:22:00.253Z,100961.00
2023-04-04T23:24:28.347Z,100959.63
2023-04-04T23:26:55.029Z,100965.94
2023-04-04T23:29:21.665Z,100958.38
2023-04-04T23:31:48.363Z,100962.53
2023-04-04T23:34:15.040Z,100956.38
2023-04-04T23:36:41.794Z,100962.69
2023-04-04T23:39:08.532Z,100958.53
2023-04-04T23:41:36.762Z,100959.88
2023-04-04T23:44:03.688Z,100952.41
2023-04-04T23:46:30.668Z,100956.09
2023-04-04T23:48:59.139Z,100951.84
2023-04-04T23:51:25.943Z,100946.38
2023-04-04T23:53:52.724Z,100937.03
2023-04-04T23:56:19.459Z,100934.69
2023-04-04T23:58:47.573Z,100933.25
